Time;durP1;ratioP1;P1;durP2;ratioP2;P2;SDS_P1;SDS_P2;PMS_P1;PMS_P2;Temp;Humidity;BMP_temperature;BMP_pressure;BME280_temperature;BME280_humidity;BME280_pressure;Samples;Min_cycle;Max_cycle;Signal;HPM_P1;HPM_P2
2023/05/24 00:02:05;;;;;;;8.65;4.15;;;;;;;16.39;100.00;100180.75;4778733;30;20549;-71
2023/05/24 00:04:31;;;;;;;4.93;2.90;;;;;;;16.38;100.00;100184.28;4789134;29;20050;-71
2023/05/24 00:06:57;;;;;;;7.10;4.50;;;;;;;16.36;100.00;100189.63;4781336;30;20067;-71
2023/05/24 00:09:22;;;;;;;17.40;5.45;;;;;;;16.42;100.00;100175.34;4781514;29;20749;-71
2023/05/24 00:11:48;;;;;;;5.10;3.22;;;;;;;16.45;100.00;100176.13;4781293;30;20134;-71
2023/05/24 00:14:14;;;;;;;5.47;4.15;;;;;;;16.46;100.00;100183.16;4773113;30;20035;-71
2023/05/24 00:16:40;;;;;;;5.57;3.80;;;;;;;16.14;100.00;100139.03;4776772;29;20046;-71
2023/05/24 00:19:05;;;;;;;6.57;3.60;;;;;;;16.31;100.00;100172.13;4786159;29;20046;-73
2023/05/24 00:21:33;;;;;;;4.35;3.03;;;;;;;16.40;100.00;100174.53;4781173;30;20038;-71
2023/05/24 00:23:59;;;;;;;6.15;3.63;;;;;;;16.04;100.00;100140.22;4762893;30;20046;-72
2023/05/24 00:26:24;;;;;;;5.80;4.32;;;;;;;16.25;100.00;100178.47;4742701;30;20109;-71
2023/05/24 00:28:50;;;;;;;6.25;3.83;;;;;;;16.08;100.00;100168.31;4780068;29;20046;-71
2023/05/24 00:31:16;;;;;;;5.28;3.95;;;;;;;16.08;100.00;100170.09;4774196;29;20040;-71
2023/05/24 00:33:41;;;;;;;5.13;3.58;;;;;;;16.18;100.00;100158.38;4781175;30;20059;-71
2023/05/24 00:36:06;;;;;;;5.03;3.75;;;;;;;16.28;100.00;100169.56;4781396;30;20051;-71
2023/05/24 00:38:32;;;;;;;8.43;4.30;;;;;;;16.27;100.00;100176.63;4781673;29;20047;-71
2023/05/24 00:41:00;;;;;;;8.43;4.63;;;;;;;16.23;100.00;100169.69;4780083;30;20039;-72
2023/05/24 00:43:25;;;;;;;7.85;4.93;;;;;;;15.97;100.00;100176.56;4764848;30;20087;-71
2023/05/24 00:46:21;;;;;;;4.70;3.85;;;;;;;15.86;100.00;100169.78;4776839;30;20122;-71
2023/05/24 00:48:48;;;;;;;8.38;4.95;;;;;;;15.97;100.00;100168.59;4780916;30;20529;-71
2023/05/24 00:51:14;;;;;;;5.30;3.70;;;;;;;15.86;100.00;100164.50;4780663;29;20447;-71
2023/05/24 00:53:43;;;;;;;8.77;5.50;;;;;;;16.08;100.00;100167.44;4762911;30;20047;-71
2023/05/24 00:56:10;;;;;;;7.53;4.15;;;;;;;16.05;100.00;100173.69;4778117;29;20118;-71
2023/05/24 00:58:35;;;;;;;5.78;4.88;;;;;;;16.02;100.00;100165.84;4784170;29;20041;-71
2023/05/24 01:01:02;;;;;;;8.23;4.35;;;;;;;15.99;100.00;100160.59;4781580;30;20423;-71
2023/05/24 01:03:28;;;;;;;11.88;4.32;;;;;;;15.94;100.00;100162.50;4781321;30;20038;-71
2023/05/24 01:05:58;;;;;;;8.57;4.88;;;;;;;15.84;100.00;100151.31;4781275;30;20369;-71
2023/05/24 01:08:38;;;;;;;6.45;4.55;;;;;;;15.87;100.00;100143.28;4780970;30;20497;-71
2023/05/24 01:11:25;;;;;;;6.43;4.53;;;;;;;15.92;100.00;100137.88;4778291;30;20110;-72
2023/05/24 01:13:50;;;;;;;7.15;4.32;;;;;;;15.89;100.00;100137.97;4780864;29;20066;-71
2023/05/24 01:16:25;;;;;;;6.35;4.65;;;;;;;15.86;100.00;100141.56;4780766;30;20043;-71
2023/05/24 01:18:55;;;;;;;6.82;4.70;;;;;;;15.86;100.00;100135.41;4780371;30;20039;-71
2023/05/24 01:21:55;;;;;;;6.35;4.20;;;;;;;15.78;100.00;100149.69;4780717;30;20162;-71
2023/05/24 01:24:43;;;;;;;6.43;4.13;;;;;;;15.51;100.00;100156.50;4704127;30;20051;-71
2023/05/24 01:27:11;;;;;;;5.55;3.92;;;;;;;15.34;100.00;100138.41;4676686;30;20037;-72
2023/05/24 01:29:38;;;;;;;7.10;5.95;;;;;;;15.58;100.00;100150.16;4707114;30;20060;-72
2023/05/24 01:32:04;;;;;;;6.78;4.43;;;;;;;15.78;100.00;100143.50;4709392;30;20088;-71
2023/05/24 01:34:29;;;;;;;10.68;4.60;;;;;;;15.75;100.00;100148.91;4692756;30;20056;-71
2023/05/24 01:36:55;;;;;;;7.35;4.22;;;;;;;15.57;100.00;100116.69;4706732;30;20045;-71
2023/05/24 01:39:23;;;;;;;5.18;3.75;;;;;;;15.49;100.00;100120.44;4707352;30;20562;-71
2023/05/24 01:42:07;;;;;;;9.20;4.93;;;;;;;15.60;100.00;100147.47;4706881;30;20089;-72
2023/05/24 01:44:51;;;;;;;11.23;5.93;;;;;;;15.71;100.00;100152.50;4707699;30;20539;-71
2023/05/24 01:47:16;;;;;;;;;;;;;;;15.66;100.00;100151.72;4708001;30;20788;-70
2023/05/24 01:49:51;;;;;;;7.93;4.65;;;;;;;15.59;100.00;100149.25;4709114;30;19922;-72
2023/05/24 01:52:21;;;;;;;5.75;4.40;;;;;;;15.51;100.00;100143.28;4704051;30;20041;-71
2023/05/24 01:54:51;;;;;;;7.47;4.70;;;;;;;15.55;100.00;100137.00;4710242;30;20057;-71
2023/05/24 01:57:22;;;;;;;10.00;6.80;;;;;;;15.37;100.00;100111.88;4704322;30;20091;-71
2023/05/24 01:59:48;;;;;;;8.57;5.03;;;;;;;15.48;100.00;100138.06;4716777;30;20487;-71
2023/05/24 02:02:14;;;;;;;5.40;4.15;;;;;;;15.46;100.00;100131.94;4781335;30;20122;-71
2023/05/24 02:04:40;;;;;;;8.30;5.90;;;;;;;15.44;100.00;100124.97;4783889;30;20042;-71
2023/05/24 02:07:05;;;;;;;5.78;4.05;;;;;;;15.48;100.00;100129.28;4782907;30;20071;-71
2023/05/24 02:09:31;;;;;;;8.98;4.82;;;;;;;15.47;100.00;100128.38;4783998;29;20066;-72
2023/05/24 02:11:57;;;;;;;5.93;4.50;;;;;;;15.14;100.00;100066.66;4783675;30;20039;-72
2023/05/24 02:14:23;;;;;;;10.35;5.60;;;;;;;15.50;100.00;100135.38;4783548;30;20127;-71
2023/05/24 02:16:49;;;;;;;16.30;6.20;;;;;;;15.46;100.00;100129.31;4767449;30;20047;-72
2023/05/24 02:19:18;;;;;;;10.32;5.82;;;;;;;15.24;100.00;100107.81;4782158;29;20132;-71
2023/05/24 02:21:44;;;;;;;6.78;4.03;;;;;;;15.23;100.00;100127.22;4778839;29;20043;-73
2023/05/24 02:24:12;;;;;;;8.65;5.25;;;;;;;15.19;100.00;100125.53;4775530;29;20038;-74
2023/05/24 02:26:38;;;;;;;7.88;5.13;;;;;;;15.08;100.00;100085.31;4779805;29;20043;-74
2023/05/24 02:29:03;;;;;;;8.38;4.93;;;;;;;15.28;100.00;100124.47;4749593;29;20066;-75
2023/05/24 02:31:29;;;;;;;9.45;6.20;;;;;;;15.27;100.00;100126.25;4781252;29;20071;-74
2023/05/24 02:33:56;;;;;;;8.68;5.10;;;;;;;15.02;100.00;100086.31;4786930;29;20116;-73
2023/05/24 02:36:22;;;;;;;10.32;5.63;;;;;;;15.27;100.00;100125.38;4784073;29;20031;-74
2023/05/24 02:38:48;;;;;;;7.95;4.93;;;;;;;15.11;100.00;100095.81;4783805;29;20112;-74
2023/05/24 02:41:16;;;;;;;12.50;6.85;;;;;;;15.05;100.00;100094.16;4779973;29;20829;-74
2023/05/24 02:43:46;;;;;;;7.03;4.95;;;;;;;15.26;100.00;100142.13;4768302;30;20054;-74
2023/05/24 02:46:12;;;;;;;11.00;5.55;;;;;;;15.23;100.00;100140.44;4782429;29;20043;-74
2023/05/24 02:48:38;;;;;;;19.30;6.85;;;;;;;15.24;100.00;100143.94;4778560;29;20055;-73
2023/05/24 02:51:03;;;;;;;9.38;5.63;;;;;;;15.08;100.00;100115.25;4782911;29;20031;-74
2023/05/24 02:53:30;;;;;;;8.27;5.47;;;;;;;15.26;100.00;100136.84;4767118;30;20043;-74
2023/05/24 02:55:55;;;;;;;7.05;5.70;;;;;;;15.24;100.00;100136.91;4779859;29;20061;-73
2023/05/24 02:58:21;;;;;;;7.32;5.47;;;;;;;14.80;100.00;100058.63;4780939;29;20035;-74
2023/05/24 03:00:47;;;;;;;10.55;5.45;;;;;;;15.18;100.00;100132.59;4779141;29;20051;-74
2023/05/24 03:03:12;;;;;;;10.63;6.47;;;;;;;15.24;100.00;100130.72;4782876;29;20712;-73
2023/05/24 03:05:38;;;;;;;6.63;5.30;;;;;;;15.04;100.00;100102.13;4783153;29;20047;-73
2023/05/24 03:08:05;;;;;;;9.93;4.70;;;;;;;15.23;100.00;100139.56;4781907;29;20051;-73
2023/05/24 03:10:30;;;;;;;8.98;6.70;;;;;;;15.28;100.00;100133.25;4768160;29;20101;-74
2023/05/24 03:12:56;;;;;;;8.55;6.10;;;;;;;15.28;100.00;100138.53;4780784;29;20477;-74
2023/05/24 03:15:22;;;;;;;7.28;5.47;;;;;;;15.30;100.00;100143.81;4777367;29;20070;-74
2023/05/24 03:17:47;;;;;;;11.55;5.05;;;;;;;15.19;100.00;100133.47;4786262;29;20035;-74
2023/05/24 03:20:14;;;;;;;8.20;6.47;;;;;;;15.32;100.00;100140.22;4783558;29;20533;-73
2023/05/24 03:22:40;;;;;;;8.50;5.38;;;;;;;15.18;100.00;100107.97;4781224;29;20389;-74
2023/05/24 03:25:07;;;;;;;9.88;6.70;;;;;;;15.38;100.00;100134.78;4781907;29;20039;-73
2023/05/24 03:27:33;;;;;;;7.78;6.13;;;;;;;15.41;100.00;100140.00;4780649;29;20745;-74
2023/05/24 03:29:59;;;;;;;9.07;5.13;;;;;;;15.13;100.00;100141.56;4775429;29;20058;-75
2023/05/24 03:32:24;;;;;;;9.13;5.53;;;;;;;15.15;100.00;100140.63;4763086;29;20091;-75
2023/05/24 03:34:49;;;;;;;13.35;5.50;;;;;;;15.46;100.00;100139.03;4779493;29;20512;-74
2023/05/24 03:37:15;;;;;;;8.48;5.20;;;;;;;15.36;100.00;100149.81;4778179;29;20051;-74
2023/05/24 03:39:40;;;;;;;15.05;5.13;;;;;;;15.16;100.00;100134.41;4782266;29;20046;-74
2023/05/24 03:42:06;;;;;;;8.52;5.80;;;;;;;15.44;100.00;100154.91;4779714;29;20390;-74
2023/05/24 03:44:32;;;;;;;7.00;5.45;;;;;;;15.49;100.00;100144.22;4775957;29;20036;-74
2023/05/24 03:46:57;;;;;;;7.45;5.43;;;;;;;15.33;100.00;100128.72;4776385;29;20039;-74
2023/05/24 03:49:22;;;;;;;8.02;5.60;;;;;;;15.58;100.00;100173.09;4777876;29;20096;-74
2023/05/24 03:51:48;;;;;;;10.80;6.60;;;;;;;15.65;100.00;100161.44;4779680;29;20051;-73
2023/05/24 03:54:13;;;;;;;12.88;6.68;;;;;;;15.16;100.00;100070.13;4779248;29;20791;-74
2023/05/24 03:56:39;;;;;;;7.20;6.25;;;;;;;15.76;100.00;100180.63;4744005;30;20050;-74
2023/05/24 03:59:04;;;;;;;7.78;5.63;;;;;;;15.57;100.00;100185.47;4761457;30;20031;-74
2023/05/24 04:01:30;;;;;;;11.10;6.40;;;;;;;15.63;100.00;100179.13;4778823;29;20078;-74
2023/05/24 04:04:00;;;;;;;7.95;5.97;;;;;;;15.48;100.00;100183.03;4777721;29;20621;-75
2023/05/24 04:06:27;;;;;;;9.23;5.97;;;;;;;15.51;100.00;100168.88;4782115;29;20117;-75
2023/05/24 04:08:58;;;;;;;10.23;6.20;;;;;;;15.61;100.00;100184.44;4780256;29;20042;-74
2023/05/24 04:11:27;;;;;;;13.52;5.72;;;;;;;15.33;100.00;100133.16;4779072;29;20073;-74
2023/05/24 04:13:54;;;;;;;7.88;6.00;;;;;;;15.66;100.00;100176.41;4784908;29;20103;-74
2023/05/24 04:16:23;;;;;;;9.65;5.68;;;;;;;15.51;100.00;100127.41;4775414;29;20383;-75
2023/05/24 04:18:53;;;;;;;14.38;6.03;;;;;;;15.73;100.00;100191.28;4780651;29;20039;-75
2023/05/24 04:21:19;;;;;;;9.25;5.80;;;;;;;15.73;100.00;100183.34;4771912;29;20051;-75
2023/05/24 04:23:45;;;;;;;9.68;5.47;;;;;;;15.79;100.00;100158.50;4780895;29;20043;-74
2023/05/24 04:26:11;;;;;;;5.75;4.45;;;;;;;15.78;100.00;100197.31;4777580;29;20042;-75
2023/05/24 04:28:40;;;;;;;6.95;5.20;;;;;;;15.72;100.00;100200.09;4780942;29;20473;-74
2023/05/24 04:31:06;;;;;;;8.13;5.00;;;;;;;15.85;100.00;100199.78;4781332;29;20043;-73
2023/05/24 04:33:35;;;;;;;8.43;5.88;;;;;;;15.60;100.00;100166.00;4782881;29;20070;-75
2023/05/24 04:36:01;;;;;;;8.02;4.68;;;;;;;15.10;100.00;100065.88;4780548;29;20043;-75
2023/05/24 04:38:31;;;;;;;7.88;5.70;;;;;;;15.98;100.00;100191.50;4781242;29;20063;-75
2023/05/24 04:40:58;;;;;;;12.43;5.38;;;;;;;16.01;100.00;100203.78;4774626;29;20475;-76
2023/05/24 04:43:25;;;;;;;7.00;5.95;;;;;;;16.04;100.00;100201.09;4783088;29;20108;-74
2023/05/24 04:45:51;;;;;;;8.45;5.20;;;;;;;15.83;100.00;100131.06;4738298;30;20047;-75
2023/05/24 04:48:16;;;;;;;7.55;4.60;;;;;;;16.20;100.00;100209.47;4782706;29;20039;-76
2023/05/24 04:50:42;;;;;;;7.95;5.15;;;;;;;16.30;100.00;100210.97;4781921;29;20043;-75
2023/05/24 04:53:08;;;;;;;10.25;5.20;;;;;;;16.35;100.00;100210.84;4788506;29;20046;-73
2023/05/24 04:55:33;;;;;;;7.18;5.85;;;;;;;16.62;100.00;100215.41;4783120;29;20478;-73
2023/05/24 04:57:59;;;;;;;8.57;5.53;;;;;;;16.43;100.00;100174.44;4782203;29;20167;-73
2023/05/24 05:00:24;;;;;;;7.45;5.32;;;;;;;16.67;100.00;100220.56;4773768;29;20130;-75
2023/05/24 05:02:49;;;;;;;7.43;4.63;;;;;;;16.10;100.00;100100.31;4766101;30;20134;-75
2023/05/24 05:05:15;;;;;;;8.55;5.90;;;;;;;17.18;100.00;100230.56;4779850;29;20046;-74
2023/05/24 05:07:40;;;;;;;10.65;5.75;;;;;;;17.41;100.00;100243.13;4778169;29;20039;-74
2023/05/24 05:10:06;;;;;;;8.23;5.75;;;;;;;17.69;100.00;100237.81;4774916;29;20059;-75
2023/05/24 05:12:32;;;;;;;13.43;4.80;;;;;;;18.46;100.00;100264.50;4731736;30;20056;-75
2023/05/24 05:14:57;;;;;;;7.80;5.70;;;;;;;18.98;100.00;100251.16;4775507;29;20100;-75
2023/05/24 05:17:23;;;;;;;7.40;5.25;;;;;;;19.38;100.00;100292.19;4780725;29;20050;-75
2023/05/24 05:19:48;;;;;;;7.55;6.05;;;;;;;19.60;100.00;100285.13;4780495;29;20051;-74
2023/05/24 05:22:15;;;;;;;9.32;6.50;;;;;;;19.63;100.00;100294.78;4775417;29;20642;-74
2023/05/24 05:24:40;;;;;;;11.65;5.22;;;;;;;20.35;100.00;100305.19;4781847;29;20039;-74
2023/05/24 05:27:06;;;;;;;9.88;6.07;;;;;;;20.88;100.00;100325.16;4796953;29;20062;-74
2023/05/24 05:29:31;;;;;;;10.43;6.20;;;;;;;20.74;100.00;100317.75;4775627;29;20108;-74
2023/05/24 05:31:57;;;;;;;10.70;5.82;;;;;;;21.41;100.00;100308.56;4780788;29;20126;-75
2023/05/24 05:34:22;;;;;;;8.40;5.68;;;;;;;21.70;100.00;100333.91;4781249;29;20067;-75
2023/05/24 05:36:48;;;;;;;7.50;4.88;;;;;;;22.18;100.00;100360.13;4781070;29;20121;-75
2023/05/24 05:39:13;;;;;;;6.63;4.88;;;;;;;22.49;100.00;100352.34;4781352;29;20852;-75
2023/05/24 05:41:42;;;;;;;6.93;4.72;;;;;;;21.27;100.00;100353.69;4780230;29;20118;-73
2023/05/24 05:44:08;;;;;;;9.85;4.88;;;;;;;21.35;100.00;100367.53;4776774;29;20714;-74
2023/05/24 05:46:34;;;;;;;7.55;5.53;;;;;;;22.19;100.00;100368.06;4782073;29;20043;-75
2023/05/24 05:48:59;;;;;;;7.68;4.95;;;;;;;21.24;100.00;100368.03;4778444;29;20054;-73
2023/05/24 05:51:25;;;;;;;7.20;5.72;;;;;;;21.94;100.00;100352.38;4776210;29;20494;-75
2023/05/24 05:53:51;;;;;;;6.25;4.22;;;;;;;22.59;100.00;100359.91;4763391;30;20076;-76
2023/05/24 05:56:16;;;;;;;6.53;3.83;;;;;;;23.45;100.00;100375.03;4779164;29;20051;-75
2023/05/24 05:58:42;;;;;;;10.43;4.50;;;;;;;23.78;100.00;100379.53;4783409;29;20053;-74
2023/05/24 06:01:07;;;;;;;7.82;4.22;;;;;;;23.90;100.00;100380.66;4781592;29;20039;-76
2023/05/24 06:03:33;;;;;;;6.13;4.32;;;;;;;24.05;100.00;100378.94;4781072;29;20052;-75
2023/05/24 06:05:58;;;;;;;8.40;4.10;;;;;;;22.37;100.00;100386.88;4781953;29;20039;-74
2023/05/24 06:08:24;;;;;;;6.15;4.03;;;;;;;21.70;100.00;100379.31;4786065;29;20039;-75
2023/05/24 06:10:49;;;;;;;13.15;5.65;;;;;;;22.41;100.00;100380.44;4781286;29;20043;-74
2023/05/24 06:13:15;;;;;;;8.93;3.88;;;;;;;23.56;100.00;100382.50;4771887;29;20047;-75
2023/05/24 06:15:40;;;;;;;5.70;4.43;;;;;;;23.91;100.00;100377.03;4766054;30;20039;-75
2023/05/24 06:18:06;;;;;;;6.55;2.95;;;;;;;24.12;100.00;100383.88;4780725;29;20039;-77
2023/05/24 06:20:31;;;;;;;5.07;3.10;;;;;;;23.22;100.00;100388.78;4775198;29;20139;-74
2023/05/24 06:22:57;;;;;;;5.65;3.88;;;;;;;24.06;100.00;100388.72;4771577;29;20044;-76
2023/05/24 06:25:23;;;;;;;12.20;3.50;;;;;;;24.28;100.00;100391.00;4779421;29;20071;-74
2023/05/24 06:27:51;;;;;;;9.88;5.10;;;;;;;24.37;100.00;100353.81;4778444;29;20728;-76
2023/05/24 06:30:17;;;;;;;4.53;2.83;;;;;;;24.24;100.00;100352.81;4777525;29;20058;-76
2023/05/24 06:32:43;;;;;;;19.88;14.70;;;;;;;23.81;100.00;100379.34;4783633;29;20486;-81
2023/05/24 06:35:08;;;;;;;98.57;54.70;;;;;;;23.62;100.00;100375.94;4764454;29;20078;-75
2023/05/24 06:37:34;;;;;;;128.02;80.20;;;;;;;24.11;100.00;100352.63;4782162;29;20035;-73
2023/05/24 06:40:00;;;;;;;188.23;121.53;;;;;;;24.18;100.00;100342.41;4770300;29;20051;-73
2023/05/24 06:42:26;;;;;;;284.25;172.73;;;;;;;24.33;100.00;100383.59;4779905;29;20063;-73
2023/05/24 06:44:51;;;;;;;131.32;83.65;;;;;;;24.28;100.00;100372.25;4779314;29;20493;-74
2023/05/24 06:47:17;;;;;;;192.85;121.30;;;;;;;24.27;100.00;100370.53;4774581;29;20076;-76
2023/05/24 06:49:42;;;;;;;10.10;9.05;;;;;;;24.51;100.00;100387.91;4781735;29;20048;-73
2023/05/24 06:52:08;;;;;;;5.95;3.85;;;;;;;23.82;100.00;100390.94;4779146;29;20728;-73
2023/05/24 06:54:33;;;;;;;38.28;23.02;;;;;;;24.67;100.00;100385.19;4779319;29;20035;-73
2023/05/24 06:56:59;;;;;;;203.00;112.78;;;;;;;24.74;100.00;100370.44;4773650;29;20047;-75
2023/05/24 06:59:24;;;;;;;17.55;14.10;;;;;;;24.69;100.00;100391.31;4778925;29;20046;-72
2023/05/24 07:01:56;;;;;;;7.40;5.70;;;;;;;23.71;100.00;100388.81;4774036;29;20050;-74
2023/05/24 07:04:21;;;;;;;5.60;3.70;;;;;;;23.28;100.00;100378.63;4780605;29;20545;-74
2023/05/24 07:06:47;;;;;;;4.57;2.92;;;;;;;23.02;100.00;100393.38;4772666;29;20043;-74
2023/05/24 07:09:13;;;;;;;4.32;2.80;;;;;;;23.55;100.00;100378.97;4781048;29;20039;-74
2023/05/24 07:11:39;;;;;;;9.85;6.40;;;;;;;23.73;100.00;100352.09;4775643;29;20035;-73
2023/05/24 07:14:05;;;;;;;57.92;34.55;;;;;;;23.55;100.00;100381.63;4778210;29;20104;-74
2023/05/24 07:16:30;;;;;;;63.30;34.20;;;;;;;23.69;100.00;100385.34;4762365;30;20213;-75
2023/05/24 07:18:57;;;;;;;7.80;5.07;;;;;;;24.01;100.00;100394.31;4775481;29;20126;-73
2023/05/24 07:21:22;;;;;;;46.65;28.63;;;;;;;23.78;100.00;100385.75;4776326;29;20037;-75
2023/05/24 07:23:50;;;;;;;5.18;4.28;;;;;;;23.46;100.00;100386.59;4778909;29;20041;-74
2023/05/24 07:26:16;;;;;;;9.68;3.70;;;;;;;23.57;100.00;100360.09;4780325;29;20126;-73
2023/05/24 07:28:41;;;;;;;22.02;12.68;;;;;;;23.10;100.00;100361.72;4779001;29;20039;-74
2023/05/24 07:31:10;;;;;;;8.02;5.40;;;;;;;23.11;100.00;100400.09;4780159;30;20043;-74
2023/05/24 07:33:39;;;;;;;6.35;3.47;;;;;;;23.51;100.00;100396.13;4785257;29;20063;-73
2023/05/24 07:36:05;;;;;;;17.90;11.18;;;;;;;23.53;100.00;100393.34;4773605;30;20043;-74
2023/05/24 07:38:31;;;;;;;10.23;4.47;;;;;;;23.77;100.00;100394.75;4764361;30;20513;-73
2023/05/24 07:41:02;;;;;;;5.20;2.67;;;;;;;23.69;100.00;100383.53;4781140;30;20075;-74
2023/05/24 07:43:28;;;;;;;7.55;3.92;;;;;;;23.66;100.00;100386.38;4772838;29;20476;-74
2023/05/24 07:45:54;;;;;;;3.05;2.38;;;;;;;24.37;94.14;100391.38;4788599;29;20043;-74
2023/05/24 07:48:20;;;;;;;9.15;4.45;;;;;;;24.03;98.55;100392.44;4780902;29;20089;-74
2023/05/24 07:50:48;;;;;;;5.53;2.38;;;;;;;24.48;92.34;100392.59;4778724;30;20592;-74
2023/05/24 07:53:14;;;;;;;5.40;2.38;;;;;;;24.13;100.00;100398.97;4780682;30;20494;-75
2023/05/24 07:55:40;;;;;;;3.25;2.60;;;;;;;24.17;97.86;100397.00;4776374;30;20043;-73
2023/05/24 07:58:05;;;;;;;4.97;2.70;;;;;;;23.99;97.09;100393.53;4779661;29;20043;-74
2023/05/24 08:00:32;;;;;;;5.70;3.50;;;;;;;24.10;95.34;100369.69;4781369;30;20054;-74
2023/05/24 08:02:58;;;;;;;5.45;2.08;;;;;;;24.40;92.07;100384.97;4779730;29;20074;-74
2023/05/24 08:05:24;;;;;;;4.88;2.88;;;;;;;24.25;92.53;100393.88;4776545;29;20550;-73
2023/05/24 08:07:51;;;;;;;5.85;2.55;;;;;;;24.67;90.77;100398.59;4780583;29;20053;-75
2023/05/24 08:10:17;;;;;;;3.63;1.90;;;;;;;24.62;81.87;100393.50;4778083;29;20047;-73
2023/05/24 08:12:43;;;;;;;3.15;1.92;;;;;;;24.43;77.61;100388.31;4772434;29;20031;-74
2023/05/24 08:15:08;;;;;;;10.65;3.28;;;;;;;25.01;79.66;100394.78;4785722;29;20554;-74
2023/05/24 08:17:34;;;;;;;3.55;1.85;;;;;;;25.22;78.57;100386.41;4742228;29;20139;-75
2023/05/24 08:20:00;;;;;;;5.18;2.72;;;;;;;25.54;84.58;100356.66;4779490;29;20075;-72
2023/05/24 08:22:25;;;;;;;2.42;1.75;;;;;;;26.01;84.00;100388.59;4777043;30;20039;-73
2023/05/24 08:24:51;;;;;;;4.88;2.85;;;;;;;24.78;79.55;100388.09;4775036;29;20074;-73
2023/05/24 08:27:16;;;;;;;5.03;3.03;;;;;;;25.56;82.07;100395.03;4778038;30;20119;-73
2023/05/24 08:29:42;;;;;;;3.10;2.10;;;;;;;25.22;77.96;100397.16;4779776;30;20422;-73
2023/05/24 08:32:08;;;;;;;3.10;2.00;;;;;;;26.17;77.90;100406.41;4779025;30;20039;-74
2023/05/24 08:34:37;;;;;;;4.18;2.25;;;;;;;26.62;74.34;100399.88;4776846;29;20507;-73
2023/05/24 08:37:04;;;;;;;4.07;2.33;;;;;;;26.02;70.56;100400.22;4763691;30;20053;-74
2023/05/24 08:39:29;;;;;;;3.75;2.05;;;;;;;25.32;71.96;100403.66;4775835;29;20039;-73
2023/05/24 08:41:57;;;;;;;3.63;2.08;;;;;;;26.15;69.14;100398.44;4773650;29;20823;-73
2023/05/24 08:44:23;;;;;;;3.50;2.30;;;;;;;26.48;70.97;100398.06;4776955;29;20043;-72
2023/05/24 08:46:50;;;;;;;4.10;2.17;;;;;;;26.19;63.16;100337.25;4770099;29;20054;-72
2023/05/24 08:49:15;;;;;;;4.72;3.13;;;;;;;26.73;60.18;100408.06;4777823;29;20039;-72
2023/05/24 08:51:43;;;;;;;5.47;2.83;;;;;;;26.33;55.53;100369.47;4780145;30;20066;-73
2023/05/24 08:54:10;;;;;;;3.08;2.10;;;;;;;27.05;59.65;100367.28;4773611;29;20042;-73
2023/05/24 08:56:38;;;;;;;7.43;4.32;;;;;;;26.99;60.24;100389.25;4771421;29;20039;-74
2023/05/24 08:59:04;;;;;;;2.50;1.63;;;;;;;26.67;57.86;100397.72;4769310;29;20488;-73
2023/05/24 09:01:31;;;;;;;12.35;1.50;;;;;;;27.43;53.41;100397.94;4760472;30;20809;-74
2023/05/24 09:03:59;;;;;;;5.57;2.65;;;;;;;26.96;53.58;100397.56;4778419;29;20553;-75
2023/05/24 09:06:25;;;;;;;5.28;2.40;;;;;;;27.83;55.58;100377.09;4778879;29;20041;-72
2023/05/24 09:08:52;;;;;;;3.42;2.60;;;;;;;28.31;53.13;100376.28;4773209;29;20058;-72
2023/05/24 09:11:19;;;;;;;4.88;2.83;;;;;;;27.96;54.32;100374.38;4771131;29;20120;-72
2023/05/24 09:13:46;;;;;;;3.42;2.45;;;;;;;26.14;56.31;100395.88;4773757;29;20046;-73
2023/05/24 09:16:11;;;;;;;3.90;2.20;;;;;;;26.29;56.85;100387.66;4779970;29;20042;-72
2023/05/24 09:18:40;;;;;;;3.97;2.03;;;;;;;28.15;55.67;100380.13;4776433;29;20044;-72
2023/05/24 09:21:06;;;;;;;4.55;2.38;;;;;;;28.46;53.58;100379.66;4777044;29;20043;-73
2023/05/24 09:23:33;;;;;;;3.78;1.63;;;;;;;28.54;51.00;100386.25;4776085;29;20043;-72
2023/05/24 09:26:06;;;;;;;2.90;2.20;;;;;;;27.86;54.14;100378.69;4778194;29;20918;-73
2023/05/24 09:28:32;;;;;;;3.58;2.13;;;;;;;27.29;60.39;100312.69;4774287;29;20043;-72
2023/05/24 09:31:02;;;;;;;4.25;2.63;;;;;;;28.86;53.74;100374.81;4776910;29;20035;-73
2023/05/24 09:33:33;;;;;;;3.17;2.00;;;;;;;28.79;53.47;100378.97;4779401;29;20059;-73
2023/05/24 09:36:00;;;;;;;2.95;2.10;;;;;;;26.95;54.00;100395.84;4779309;29;20428;-73
2023/05/24 09:38:26;;;;;;;4.90;2.17;;;;;;;25.93;61.52;100387.38;4774478;29;20122;-72
2023/05/24 09:41:02;;;;;;;3.72;2.05;;;;;;;25.69;62.13;100297.41;4763588;30;20138;-72
2023/05/24 09:43:33;;;;;;;3.63;2.05;;;;;;;26.15;67.16;100384.13;4771785;29;20046;-72
2023/05/24 09:46:02;;;;;;;3.03;1.85;;;;;;;25.86;66.36;100379.69;4779291;29;20046;-74
2023/05/24 09:48:28;;;;;;;4.43;2.67;;;;;;;26.00;67.79;100365.34;4780040;29;20039;-72
2023/05/24 09:51:14;;;;;;;3.65;2.28;;;;;;;27.43;61.67;100371.84;4762856;30;20523;-72
2023/05/24 09:53:43;;;;;;;2.38;1.15;;;;;;;27.42;58.09;100369.25;4772126;29;20134;-72
2023/05/24 09:56:09;;;;;;;4.03;2.60;;;;;;;28.69;56.46;100353.66;4773473;29;20671;-72
2023/05/24 09:58:35;;;;;;;2.40;1.80;;;;;;;28.98;51.57;100364.88;4779169;29;20031;-72
2023/05/24 10:01:05;;;;;;;2.75;1.73;;;;;;;28.62;48.03;100345.16;4780062;29;20455;-72
2023/05/24 10:03:31;;;;;;;7.93;2.50;;;;;;;28.38;50.11;100358.66;4778277;29;20095;-73
2023/05/24 10:05:57;;;;;;;4.53;2.65;;;;;;;28.05;50.64;100351.22;4776652;29;20557;-72
2023/05/24 10:08:23;;;;;;;6.30;2.88;;;;;;;27.50;52.23;100364.19;4761639;29;20446;-73
2023/05/24 10:10:48;;;;;;;3.33;1.52;;;;;;;27.64;52.75;100355.09;4775172;29;20037;-73
2023/05/24 10:13:16;;;;;;;4.25;2.70;;;;;;;26.88;54.15;100348.75;4782570;29;20039;-72
2023/05/24 10:15:43;;;;;;;5.63;3.08;;;;;;;26.92;55.10;100315.25;4782542;29;20119;-72
2023/05/24 10:18:09;;;;;;;4.15;2.88;;;;;;;26.36;54.80;100357.63;4778835;29;20032;-72
2023/05/24 10:20:35;;;;;;;9.20;2.63;;;;;;;25.62;59.22;100346.28;4781657;29;20667;-71
2023/05/24 10:23:06;;;;;;;3.60;1.67;;;;;;;27.58;52.99;100348.31;4748161;30;20126;-73
2023/05/24 10:25:34;;;;;;;4.55;2.33;;;;;;;27.63;52.50;100315.63;4772186;29;20054;-72
2023/05/24 10:28:03;;;;;;;3.47;1.95;;;;;;;28.03;50.41;100320.84;4778429;29;20039;-72
2023/05/24 10:30:47;;;;;;;3.85;2.08;;;;;;;28.99;47.38;100343.16;4778595;29;20134;-72
2023/05/24 10:33:13;;;;;;;3.85;2.10;;;;;;;28.95;47.02;100340.81;4769259;30;20060;-73
2023/05/24 10:35:41;;;;;;;3.67;1.80;;;;;;;29.23;46.83;100336.84;4780179;29;20073;-71
2023/05/24 10:38:07;;;;;;;2.20;1.55;;;;;;;27.90;48.17;100310.94;4772427;29;20048;-73
2023/05/24 10:40:34;;;;;;;2.55;1.77;;;;;;;28.80;47.08;100289.72;4777714;29;20798;-73
2023/05/24 10:43:03;;;;;;;2.42;1.42;;;;;;;28.77;47.85;100311.53;4770125;29;20043;-73
2023/05/24 10:45:39;;;;;;;4.22;1.77;;;;;;;28.26;48.85;100308.28;4775034;29;20083;-74
2023/05/24 10:48:14;;;;;;;2.83;1.30;;;;;;;27.83;49.22;100338.44;4774390;29;20043;-74
2023/05/24 10:50:40;;;;;;;11.18;2.53;;;;;;;28.51;47.76;100326.22;4770493;29;20067;-76
2023/05/24 10:53:19;;;;;;;3.10;1.65;;;;;;;28.97;45.82;100336.16;4770759;29;20051;-73
2023/05/24 10:56:05;;;;;;;4.03;2.05;;;;;;;27.20;49.34;100316.03;4768323;29;20051;-73
2023/05/24 10:58:58;;;;;;;7.15;2.10;;;;;;;29.17;46.98;100294.94;4759619;29;20078;-73
2023/05/24 11:01:31;;;;;;;3.15;1.75;;;;;;;29.23;47.42;100321.47;4772544;29;20047;-72
2023/05/24 11:04:11;;;;;;;4.70;1.50;;;;;;;29.46;45.56;100322.34;4769558;29;20086;-73
2023/05/24 11:06:54;;;;;;;3.20;1.63;;;;;;;29.54;44.28;100324.41;4766587;29;20226;-73
2023/05/24 11:09:20;;;;;;;4.03;2.03;;;;;;;28.81;45.00;100321.13;4768600;29;20073;-71
2023/05/24 11:11:53;;;;;;;3.00;1.85;;;;;;;28.75;46.04;100320.75;4766391;30;20050;-72
2023/05/24 11:14:23;;;;;;;4.38;1.65;;;;;;;28.55;46.39;100289.91;4769731;29;20050;-72
2023/05/24 11:16:50;;;;;;;2.10;1.20;;;;;;;28.96;46.14;100283.97;4771594;29;20051;-74
2023/05/24 11:19:23;;;;;;;2.45;1.23;;;;;;;27.09;48.85;100288.00;4776923;29;20039;-73